Time;durP1;ratioP1;P1;durP2;ratioP2;P2;SDS_P1;SDS_P2;PMS_P1;PMS_P2;Temp;Humidity;BMP_temperature;BMP_pressure;BME280_temperature;BME280_humidity;BME280_pressure;Samples;Min_cycle;Max_cycle;Signal;HPM_P1;HPM_P2
2023/07/10 00:02:02;;;;;;;8.57;3.75;;;;;;;22.36;57.68;99072.13;4485097;31;20091;-66
2023/07/10 00:04:30;;;;;;;5.57;3.65;;;;;;;22.28;56.85;99067.78;4485083;31;20107;-66
2023/07/10 00:06:57;;;;;;;4.93;3.15;;;;;;;22.35;56.07;99067.84;4485032;32;20445;-66
2023/07/10 00:09:25;;;;;;;5.50;3.55;;;;;;;22.34;55.97;99071.53;4484974;32;20552;-66
2023/07/10 00:11:53;;;;;;;4.93;3.40;;;;;;;22.29;55.75;99073.97;4485012;31;20406;-66
2023/07/10 00:14:23;;;;;;;4.30;3.17;;;;;;;22.23;55.82;99072.94;4485035;31;20130;-66
2023/07/10 00:16:52;;;;;;;5.70;3.17;;;;;;;22.21;55.69;99076.81;4484922;32;20200;-66
2023/07/10 00:19:21;;;;;;;5.75;3.45;;;;;;;22.12;55.51;99071.72;4485126;31;20624;-66
2023/07/10 00:21:51;;;;;;;6.10;3.15;;;;;;;22.06;55.89;99072.53;4484833;31;20100;-66
2023/07/10 00:24:18;;;;;;;6.65;3.42;;;;;;;22.09;55.71;99068.59;4484932;31;20092;-66
2023/07/10 00:26:47;;;;;;;4.28;3.20;;;;;;;22.01;55.69;99068.81;4484866;31;20101;-66
2023/07/10 00:29:20;;;;;;;4.37;3.00;;;;;;;21.93;55.26;99072.50;4484911;31;20085;-66
2023/07/10 00:31:48;;;;;;;;;;;;;;;21.91;54.50;99072.72;4485269;31;20347;-66
2023/07/10 00:34:17;;;;;;;5.65;3.17;;;;;;;21.93;54.60;99076.00;4485035;31;19975;-66
2023/07/10 00:36:50;;;;;;;5.95;3.25;;;;;;;21.94;54.68;99071.50;4484716;31;20084;-66
2023/07/10 00:39:29;;;;;;;6.22;3.85;;;;;;;21.98;54.24;99073.56;4484921;32;20127;-66
2023/07/10 00:42:02;;;;;;;3.72;2.92;;;;;;;22.05;53.93;99067.41;4483256;32;20122;-66
2023/07/10 00:44:39;;;;;;;6.05;3.50;;;;;;;22.08;54.07;99070.47;4483027;32;20080;-66
2023/07/10 00:47:28;;;;;;;7.25;3.83;;;;;;;22.04;54.25;99068.41;4483436;32;20096;-66
2023/07/10 00:50:02;;;;;;;3.75;3.05;;;;;;;22.05;54.16;99065.53;4483441;32;20097;-66
2023/07/10 00:52:52;;;;;;;4.53;3.25;;;;;;;22.10;54.07;99070.25;4469406;32;20123;-66
2023/07/10 00:55:28;;;;;;;5.28;3.62;;;;;;;22.15;54.35;99055.28;4469045;32;20449;-66
2023/07/10 00:58:28;;;;;;;4.72;2.97;;;;;;;22.20;54.47;99064.53;4467479;32;20137;-66
2023/07/10 01:01:00;;;;;;;5.03;3.10;;;;;;;22.24;54.84;99060.41;4467630;32;20438;-66
2023/07/10 01:03:28;;;;;;;9.18;3.60;;;;;;;22.24;55.53;99063.06;4468884;32;20076;-66
2023/07/10 01:05:58;;;;;;;6.30;3.05;;;;;;;22.21;56.59;99061.66;4468639;32;20104;-66
2023/07/10 01:08:26;;;;;;;4.28;3.00;;;;;;;22.25;57.50;99060.19;4467803;32;20092;-66
2023/07/10 01:10:54;;;;;;;5.47;3.70;;;;;;;22.27;58.52;99068.00;4468649;32;20155;-66
2023/07/10 01:13:21;;;;;;;6.87;3.37;;;;;;;22.32;59.53;99062.91;4472489;32;20119;-66
2023/07/10 01:15:49;;;;;;;6.03;3.53;;;;;;;22.33;60.13;99075.22;4484318;31;20151;-66
2023/07/10 01:18:18;;;;;;;4.93;3.60;;;;;;;22.37;60.68;99067.62;4484192;32;20570;-66
2023/07/10 01:20:49;;;;;;;5.75;3.75;;;;;;;22.41;61.08;99072.34;4483040;32;20431;-66
2023/07/10 01:23:18;;;;;;;6.72;4.40;;;;;;;22.41;61.49;99067.00;4482809;32;20100;-66
2023/07/10 01:25:54;;;;;;;5.07;3.45;;;;;;;22.41;61.81;99074.22;4482882;32;20135;-66
2023/07/10 01:28:22;;;;;;;4.70;3.58;;;;;;;22.43;61.34;99064.94;4484209;32;20088;-66
2023/07/10 01:30:52;;;;;;;5.75;3.72;;;;;;;22.46;61.68;99059.19;4482876;32;20485;-66
2023/07/10 01:33:29;;;;;;;5.37;3.62;;;;;;;22.45;61.11;99067.41;4482858;32;20161;-66
2023/07/10 01:35:58;;;;;;;6.78;3.70;;;;;;;22.39;60.90;99069.06;4482763;32;20088;-66
2023/07/10 01:38:30;;;;;;;4.85;3.75;;;;;;;22.35;60.58;99067.00;4483909;31;20118;-66
2023/07/10 01:41:00;;;;;;;4.22;3.40;;;;;;;22.32;60.81;99065.59;4483839;32;20092;-66
2023/07/10 01:43:29;;;;;;;8.40;4.05;;;;;;;22.29;61.61;99063.28;4482507;32;20157;-66
2023/07/10 01:45:56;;;;;;;4.72;3.55;;;;;;;22.30;62.23;99070.25;4483802;31;20204;-66
2023/07/10 01:48:27;;;;;;;6.32;4.53;;;;;;;22.25;63.29;99065.53;4483552;32;20146;-66
2023/07/10 01:50:55;;;;;;;11.52;4.40;;;;;;;22.31;64.27;99066.59;4483830;31;20146;-66
2023/07/10 01:53:23;;;;;;;7.05;4.03;;;;;;;22.33;64.66;99057.38;4483586;31;20530;-66
2023/07/10 01:55:51;;;;;;;7.18;3.60;;;;;;;22.35;64.88;99057.16;4484875;32;20160;-66
2023/07/10 01:58:18;;;;;;;4.45;3.50;;;;;;;22.36;65.08;99052.62;4485991;31;20545;-66
2023/07/10 02:00:46;;;;;;;7.00;3.80;;;;;;;22.36;64.79;99055.31;4485971;31;20104;-66
2023/07/10 02:03:14;;;;;;;4.70;3.83;;;;;;;22.44;64.37;99055.91;4485865;32;20100;-66
2023/07/10 02:05:44;;;;;;;4.40;3.50;;;;;;;22.42;64.86;99055.31;4485858;32;20084;-66
2023/07/10 02:08:12;;;;;;;5.90;3.90;;;;;;;22.47;64.97;99057.38;4485894;32;20096;-66
2023/07/10 02:10:39;;;;;;;6.00;3.75;;;;;;;22.44;65.19;99061.25;4486022;32;20142;-66
2023/07/10 02:13:12;;;;;;;5.62;3.72;;;;;;;22.42;65.02;99057.97;4485754;31;20119;-66
2023/07/10 02:15:40;;;;;;;7.00;4.03;;;;;;;22.38;65.04;99062.09;4486019;32;20147;-66
2023/07/10 02:18:08;;;;;;;8.23;3.62;;;;;;;22.35;65.20;99049.16;4485503;32;20544;-66
2023/07/10 02:20:36;;;;;;;6.32;4.03;;;;;;;22.38;64.98;99054.06;4485864;31;20101;-66
2023/07/10 02:23:04;;;;;;;5.20;3.67;;;;;;;22.31;65.71;99053.25;4485525;31;20621;-66
2023/07/10 02:25:32;;;;;;;5.97;3.55;;;;;;;22.33;65.94;99059.19;4485897;31;20083;-66
2023/07/10 02:28:00;;;;;;;6.45;3.92;;;;;;;22.30;66.28;99060.41;4485629;31;20438;-66
2023/07/10 02:30:28;;;;;;;6.35;4.03;;;;;;;22.25;66.97;99054.84;4485805;31;20119;-66
2023/07/10 02:32:56;;;;;;;5.57;4.20;;;;;;;22.18;67.79;99055.87;4485787;32;20088;-66
2023/07/10 02:35:24;;;;;;;7.00;4.37;;;;;;;22.11;69.00;99056.72;4485828;31;20164;-66
2023/07/10 02:37:52;;;;;;;5.93;4.35;;;;;;;22.10;69.86;99048.91;4486064;31;20165;-66
2023/07/10 02:40:20;;;;;;;8.60;4.68;;;;;;;22.02;71.03;99057.94;4485874;31;20100;-66
2023/07/10 02:42:48;;;;;;;6.50;4.10;;;;;;;21.99;71.78;99058.34;4485468;31;20080;-66
2023/07/10 02:45:16;;;;;;;7.57;4.25;;;;;;;22.01;72.04;99055.47;4485895;32;20118;-66
2023/07/10 02:47:45;;;;;;;5.55;3.92;;;;;;;22.01;72.49;99055.47;4485642;31;20616;-66
2023/07/10 02:50:12;;;;;;;6.45;4.22;;;;;;;22.01;72.84;99056.28;4485569;31;20478;-66
2023/07/10 02:52:40;;;;;;;8.98;4.60;;;;;;;21.95;73.35;99055.28;4485522;31;20108;-66
2023/07/10 02:55:08;;;;;;;7.03;4.62;;;;;;;21.95;73.53;99055.28;4485571;32;20397;-66
2023/07/10 02:57:36;;;;;;;6.12;3.97;;;;;;;21.92;74.05;99052.19;4485660;31;20088;-66
2023/07/10 03:00:04;;;;;;;6.18;4.12;;;;;;;21.87;74.43;99055.47;4485855;31;20101;-66
2023/07/10 03:02:32;;;;;;;6.60;4.30;;;;;;;21.83;74.87;99053.41;4485557;31;20130;-66
2023/07/10 03:05:00;;;;;;;5.80;4.30;;;;;;;21.78;75.44;99049.50;4485605;31;20168;-66
2023/07/10 03:07:30;;;;;;;7.55;4.30;;;;;;;21.79;75.83;99047.69;4485125;31;20096;-66
2023/07/10 03:09:58;;;;;;;10.10;5.18;;;;;;;21.77;76.46;99047.03;4485601;31;20088;-66
2023/07/10 03:12:26;;;;;;;7.53;4.68;;;;;;;21.72;77.10;99046.84;4485407;32;20493;-66
2023/07/10 03:14:53;;;;;;;6.05;4.43;;;;;;;21.69;77.65;99042.72;4485445;31;20187;-66
2023/07/10 03:17:22;;;;;;;8.68;4.90;;;;;;;21.75;77.54;99047.25;4485476;31;20118;-66
2023/07/10 03:19:50;;;;;;;8.32;4.28;;;;;;;21.80;77.60;99052.81;4485314;31;20084;-66
2023/07/10 03:22:19;;;;;;;8.20;4.65;;;;;;;21.86;77.83;99045.81;4485359;31;20101;-66
2023/07/10 03:24:46;;;;;;;6.15;4.32;;;;;;;21.92;78.43;99047.69;4485398;32;20100;-66
2023/07/10 03:27:14;;;;;;;8.38;4.68;;;;;;;21.95;79.02;99051.78;4485371;31;20095;-66
2023/07/10 03:29:42;;;;;;;7.97;4.85;;;;;;;22.02;79.43;99047.28;4485316;31;20123;-66
2023/07/10 03:32:09;;;;;;;7.65;4.47;;;;;;;22.13;79.27;99048.50;4485333;31;20096;-66
2023/07/10 03:34:37;;;;;;;7.12;5.18;;;;;;;22.21;79.34;99045.66;4485297;31;20148;-66
2023/07/10 03:37:06;;;;;;;7.75;4.80;;;;;;;22.31;79.25;99045.25;4485322;31;20130;-66
2023/07/10 03:39:35;;;;;;;9.32;4.97;;;;;;;22.38;79.11;99047.91;4485394;31;20522;-66
2023/07/10 03:42:02;;;;;;;9.00;4.93;;;;;;;22.42;79.22;99036.62;4485465;31;20175;-66
2023/07/10 03:44:30;;;;;;;7.03;4.90;;;;;;;22.46;79.12;99037.81;4485050;31;20092;-66
2023/07/10 03:46:58;;;;;;;7.35;4.78;;;;;;;22.54;79.05;99033.31;4485497;32;20118;-66
2023/07/10 03:49:26;;;;;;;7.65;5.12;;;;;;;22.61;78.80;99034.94;4485108;32;20992;-66
2023/07/10 03:51:54;;;;;;;5.82;4.72;;;;;;;22.65;78.78;99036.16;4485159;31;20458;-66
2023/07/10 03:54:21;;;;;;;7.57;5.37;;;;;;;22.65;78.78;99038.00;4485148;32;20551;-66
2023/07/10 03:56:49;;;;;;;8.50;4.72;;;;;;;22.73;78.61;99039.66;4485090;32;20205;-66
2023/07/10 03:59:18;;;;;;;7.20;4.25;;;;;;;22.71;78.70;99045.19;4485255;31;20100;-66
2023/07/10 04:01:46;;;;;;;6.45;4.62;;;;;;;22.75;78.59;99030.38;4485267;31;20370;-66
2023/07/10 04:04:14;;;;;;;7.30;5.20;;;;;;;22.83;78.36;99035.50;4484363;31;20092;-66
2023/07/10 04:06:43;;;;;;;7.40;4.68;;;;;;;22.83;78.54;99032.84;4483967;32;20122;-66
2023/07/10 04:09:11;;;;;;;8.13;4.97;;;;;;;22.90;78.40;99030.12;4484485;32;20100;-66
2023/07/10 04:11:39;;;;;;;7.70;5.43;;;;;;;22.94;78.34;99028.69;4484890;31;20152;-66
2023/07/10 04:14:07;;;;;;;8.95;4.90;;;;;;;22.98;78.18;99037.91;4483848;31;20100;-66
2023/07/10 04:16:35;;;;;;;6.78;4.87;;;;;;;23.07;78.25;99043.81;4484528;31;20710;-66
2023/07/10 04:19:02;;;;;;;7.30;4.60;;;;;;;23.07;78.46;99043.03;4483722;32;20118;-66
2023/07/10 04:21:31;;;;;;;6.15;4.47;;;;;;;23.11;78.60;99050.44;4484876;32;20093;-66
2023/07/10 04:23:58;;;;;;;8.20;4.87;;;;;;;23.19;78.52;99047.53;4484582;32;20100;-66
2023/07/10 04:26:29;;;;;;;7.45;4.57;;;;;;;23.23;78.13;99047.09;4484694;32;20119;-66
2023/07/10 04:28:59;;;;;;;8.23;4.78;;;;;;;23.33;77.66;99048.28;4484751;31;20723;-66
2023/07/10 04:31:27;;;;;;;6.25;4.87;;;;;;;23.42;77.39;99051.50;4484526;32;20500;-66
2023/07/10 04:33:55;;;;;;;8.70;4.68;;;;;;;23.53;76.96;99044.69;4484519;31;20435;-66
2023/07/10 04:36:22;;;;;;;5.37;4.72;;;;;;;23.55;76.94;99040.75;4484848;31;20123;-66
2023/07/10 04:38:49;;;;;;;6.53;4.10;;;;;;;23.71;76.00;99043.97;4484519;31;20152;-67
2023/07/10 04:41:20;;;;;;;6.78;4.80;;;;;;;23.82;75.80;99040.56;4484002;31;20096;-67
2023/07/10 04:43:47;;;;;;;7.53;4.70;;;;;;;24.00;75.11;99039.06;4484419;31;20092;-66
2023/07/10 04:46:16;;;;;;;6.07;4.57;;;;;;;24.07;74.37;99047.81;4484372;31;20135;-66
2023/07/10 04:48:44;;;;;;;6.62;4.60;;;;;;;24.23;74.19;99041.13;4484264;32;20227;-66
2023/07/10 04:51:12;;;;;;;7.05;4.50;;;;;;;24.45;73.13;99049.53;4483563;31;20108;-66
2023/07/10 04:53:39;;;;;;;6.18;4.43;;;;;;;24.54;73.39;99045.56;4483982;31;20104;-66
2023/07/10 04:56:10;;;;;;;6.30;4.60;;;;;;;24.75;72.08;99046.19;4484461;31;20088;-67
2023/07/10 04:58:54;;;;;;;6.35;4.82;;;;;;;24.83;71.58;99051.28;4483971;31;20572;-66
2023/07/10 05:01:27;;;;;;;12.05;5.35;;;;;;;25.02;70.95;99048.59;4484379;31;20115;-67
2023/07/10 05:03:55;;;;;;;7.72;5.32;;;;;;;25.06;70.91;99052.47;4484245;31;20521;-67
2023/07/10 05:06:22;;;;;;;8.57;5.30;;;;;;;25.07;70.21;99054.06;4484082;31;20577;-66
2023/07/10 05:08:58;;;;;;;7.30;4.93;;;;;;;25.05;70.58;99050.81;4484294;31;20108;-66
2023/07/10 05:11:28;;;;;;;6.68;4.75;;;;;;;25.18;69.70;99057.84;4483877;31;20517;-66
2023/07/10 05:14:00;;;;;;;6.75;5.07;;;;;;;25.33;69.32;99061.81;4483822;31;20096;-67
2023/07/10 05:16:29;;;;;;;6.22;4.72;;;;;;;25.33;68.41;99061.03;4483648;32;20096;-67
2023/07/10 05:18:56;;;;;;;10.38;4.95;;;;;;;25.48;67.90;99057.91;4484240;31;20096;-67
2023/07/10 05:21:23;;;;;;;10.00;5.32;;;;;;;25.50;67.38;99058.53;4482648;32;20096;-67
2023/07/10 05:23:50;;;;;;;6.05;4.62;;;;;;;25.59;67.66;99054.47;4480654;32;20115;-67
2023/07/10 05:26:19;;;;;;;5.97;4.85;;;;;;;25.67;67.73;99064.84;4481649;32;20097;-67
2023/07/10 05:28:47;;;;;;;6.15;5.00;;;;;;;25.77;67.44;99055.44;4477089;31;20142;-67
2023/07/10 05:31:15;;;;;;;8.98;5.25;;;;;;;25.78;66.85;99057.09;4479322;31;20397;-67
2023/07/10 05:33:42;;;;;;;10.02;5.12;;;;;;;25.81;67.42;99051.25;4485494;31;20092;-67
2023/07/10 05:36:13;;;;;;;10.73;5.87;;;;;;;26.00;66.33;99063.56;4484087;31;20100;-66
2023/07/10 05:38:41;;;;;;;12.40;5.37;;;;;;;26.19;65.34;99067.00;4482446;31;20114;-67
2023/07/10 05:41:08;;;;;;;6.90;4.90;;;;;;;26.37;64.84;99066.09;4482802;31;20100;-67
2023/07/10 05:43:36;;;;;;;8.35;4.87;;;;;;;26.42;63.43;99064.53;4486979;31;20126;-66
2023/07/10 05:46:04;;;;;;;8.48;5.25;;;;;;;26.60;63.95;99064.41;4480052;31;20116;-66
2023/07/10 05:48:32;;;;;;;9.45;4.20;;;;;;;26.64;63.10;99067.47;4489977;31;20104;-67
2023/07/10 05:51:00;;;;;;;9.65;5.00;;;;;;;26.78;62.81;99076.94;4480783;31;20159;-67
2023/07/10 05:53:28;;;;;;;7.53;5.28;;;;;;;26.79;61.38;99072.41;4481451;31;20104;-67
2023/07/10 05:55:56;;;;;;;8.65;4.90;;;;;;;26.76;61.32;99078.25;4482033;32;20549;-66
2023/07/10 05:58:28;;;;;;;7.00;5.07;;;;;;;26.82;61.51;99069.25;4476123;31;20107;-66
2023/07/10 06:00:57;;;;;;;7.75;5.55;;;;;;;26.86;61.26;99073.06;4484302;31;20122;-67
2023/07/10 06:03:30;;;;;;;9.23;6.15;;;;;;;27.02;59.59;99079.59;4484596;31;20153;-67
2023/07/10 06:05:59;;;;;;;11.18;6.10;;;;;;;27.03;59.07;99076.66;4473886;31;20157;-67
2023/07/10 06:08:28;;;;;;;9.00;5.55;;;;;;;27.13;59.56;99072.56;4480149;31;21068;-67
2023/07/10 06:10:55;;;;;;;6.80;5.22;;;;;;;27.14;59.70;99075.00;4481088;31;20205;-67
2023/07/10 06:13:23;;;;;;;6.93;5.30;;;;;;;27.27;59.96;99076.63;4480720;31;20450;-67
2023/07/10 06:15:52;;;;;;;7.82;5.35;;;;;;;27.28;59.70;99075.53;4480179;31;20172;-67
2023/07/10 06:18:21;;;;;;;10.18;5.05;;;;;;;27.22;59.49;99071.13;4481310;31;20131;-67
2023/07/10 06:20:59;;;;;;;6.97;5.05;;;;;;;27.30;60.13;99068.06;4480699;31;20115;-67
2023/07/10 06:23:28;;;;;;;9.63;4.82;;;;;;;27.25;60.55;99063.41;4482030;31;20520;-67
2023/07/10 06:25:57;;;;;;;7.72;5.12;;;;;;;27.20;60.53;99065.97;4477136;31;20565;-67
2023/07/10 06:28:25;;;;;;;6.75;5.37;;;;;;;27.30;59.34;99065.38;4478999;31;20587;-67
2023/07/10 06:30:58;;;;;;;6.65;4.82;;;;;;;27.41;58.47;99061.03;4481211;32;20540;-67
2023/07/10 06:33:26;;;;;;;7.07;4.97;;;;;;;27.60;58.05;99069.72;4477938;31;20097;-67
2023/07/10 06:35:54;;;;;;;9.80;5.12;;;;;;;27.80;58.13;99064.69;4475894;31;20503;-67
2023/07/10 06:38:22;;;;;;;6.40;5.00;;;;;;;27.73;57.49;99061.34;4478377;31;20105;-67
2023/07/10 06:40:51;;;;;;;9.85;5.25;;;;;;;27.81;57.75;99068.19;4478428;31;20111;-67
2023/07/10 06:43:20;;;;;;;7.40;5.25;;;;;;;27.89;56.50;99061.59;4481086;31;20177;-67
2023/07/10 06:45:48;;;;;;;8.35;5.30;;;;;;;28.12;55.74;99064.19;4481176;31;20446;-67
2023/07/10 06:48:16;;;;;;;8.27;5.78;;;;;;;28.26;54.63;99066.56;4482684;31;20481;-67
2023/07/10 06:50:49;;;;;;;11.63;5.25;;;;;;;28.34;54.36;99068.81;4480580;31;20872;-67
2023/07/10 06:53:17;;;;;;;12.25;6.95;;;;;;;28.19;54.58;99063.19;4475014;31;20580;-67
2023/07/10 06:55:58;;;;;;;6.00;5.40;;;;;;;28.39;54.76;99068.06;4479470;31;20446;-67
2023/07/10 06:58:26;;;;;;;9.00;5.22;;;;;;;28.32;55.38;99066.38;4476321;31;20088;-67
2023/07/10 07:00:54;;;;;;;8.43;4.93;;;;;;;28.41;54.49;99063.28;4479852;31;20122;-66
2023/07/10 07:03:22;;;;;;;8.98;5.32;;;;;;;28.40;54.98;99062.44;4479242;31;20448;-66
2023/07/10 07:05:50;;;;;;;8.25;4.78;;;;;;;28.30;56.50;99065.00;4478434;31;20157;-66
2023/07/10 07:08:18;;;;;;;5.93;4.93;;;;;;;28.32;56.71;99071.75;4480016;31;20854;-66
2023/07/10 07:10:48;;;;;;;6.22;4.72;;;;;;;28.25;57.49;99062.22;4473487;31;20120;-66
2023/07/10 07:13:17;;;;;;;10.15;5.28;;;;;;;28.48;57.85;99061.22;4472748;31;20108;-66
2023/07/10 07:15:54;;;;;;;8.52;5.40;;;;;;;28.72;58.48;99061.88;4477988;31;20116;-66
2023/07/10 07:18:22;;;;;;;9.48;5.12;;;;;;;28.89;55.31;99055.59;4476268;31;20155;-66
2023/07/10 07:20:53;;;;;;;5.97;4.78;;;;;;;28.95;55.62;99058.09;4481553;31;20093;-66
2023/07/10 07:23:20;;;;;;;8.15;5.40;;;;;;;28.99;53.09;99058.41;4477936;31;20131;-66
2023/07/10 07:25:47;;;;;;;8.13;4.85;;;;;;;28.87;54.53;99055.03;4478652;31;20573;-66
2023/07/10 07:28:15;;;;;;;9.82;5.32;;;;;;;28.87;55.83;99057.72;4473677;31;20155;-66
2023/07/10 07:30:47;;;;;;;6.40;5.12;;;;;;;28.98;53.58;99054.09;4479490;31;20498;-67
2023/07/10 07:33:17;;;;;;;7.53;5.00;;;;;;;29.18;54.19;99057.03;4470652;31;20463;-66
2023/07/10 07:35:45;;;;;;;5.53;4.78;;;;;;;29.37;51.67;99060.25;4479218;31;20100;-66
2023/07/10 07:38:13;;;;;;;8.25;5.57;;;;;;;29.56;52.78;99055.28;4478695;31;21015;-66
2023/07/10 07:40:41;;;;;;;8.30;5.72;;;;;;;29.87;51.35;99061.03;4477837;31;20231;-66
2023/07/10 07:43:09;;;;;;;8.57;4.85;;;;;;;29.99;50.66;99054.63;4478008;31;20131;-66
2023/07/10 07:45:37;;;;;;;7.93;4.75;;;;;;;29.99;49.58;99063.53;4478778;31;20088;-66
2023/07/10 07:48:06;;;;;;;7.75;4.90;;;;;;;30.17;49.25;99065.03;4476947;31;20400;-66
2023/07/10 07:50:35;;;;;;;7.40;4.95;;;;;;;30.25;48.69;99067.28;4480188;31;20619;-66
2023/07/10 07:53:02;;;;;;;6.22;4.72;;;;;;;30.44;47.83;99058.75;4478890;31;20101;-66
2023/07/10 07:55:30;;;;;;;7.55;4.65;;;;;;;30.33;47.33;99057.06;4477968;31;20118;-66
2023/07/10 07:57:57;;;;;;;5.62;4.57;;;;;;;30.39;46.47;99059.53;4477972;31;20116;-66
2023/07/10 08:00:26;;;;;;;8.73;5.55;;;;;;;30.51;48.41;99059.34;4477365;31;20175;-65
2023/07/10 08:02:55;;;;;;;5.95;5.03;;;;;;;30.58;48.03;99059.12;4477595;31;20091;-65
2023/07/10 08:05:23;;;;;;;13.05;5.35;;;;;;;30.38;45.98;99055.19;4474742;31;20088;-65
2023/07/10 08:08:04;;;;;;;8.15;4.70;;;;;;;30.25;44.29;99044.81;4477520;31;20671;-65
2023/07/10 08:10:40;;;;;;;5.90;5.30;;;;;;;30.40;44.38;99052.25;4472187;31;20498;-66
2023/07/10 08:13:10;;;;;;;7.40;4.72;;;;;;;30.47;45.05;99049.31;4477964;31;20088;-65
2023/07/10 08:15:37;;;;;;;5.45;4.70;;;;;;;30.57;44.74;99046.69;4479597;31;20457;-65
2023/07/10 08:18:04;;;;;;;7.00;4.62;;;;;;;30.47;44.71;99042.03;4475385;31;20127;-66
2023/07/10 08:20:32;;;;;;;11.68;4.82;;;;;;;30.95;45.09;99042.00;4472485;31;20862;-66
2023/07/10 08:23:02;;;;;;;7.40;4.78;;;;;;;31.12;44.23;99044.50;4476503;31;20175;-66
2023/07/10 08:25:29;;;;;;;7.90;5.50;;;;;;;30.82;42.04;99043.28;4478747;31;20116;-65
2023/07/10 08:27:58;;;;;;;7.20;4.93;;;;;;;30.81;44.17;99036.22;4480576;31;20210;-65
2023/07/10 08:30:26;;;;;;;7.55;5.50;;;;;;;31.05;45.11;99042.03;4480705;31;20092;-65
2023/07/10 08:32:55;;;;;;;9.43;5.40;;;;;;;31.24;44.08;99041.56;4477840;31;20119;-66
2023/07/10 08:35:23;;;;;;;8.77;5.45;;;;;;;31.18;41.49;99040.75;4477652;31;20103;-65
2023/07/10 08:37:51;;;;;;;6.03;4.87;;;;;;;30.95;44.36;99042.78;4478625;31;20129;-66
2023/07/10 08:40:25;;;;;;;6.62;4.75;;;;;;;30.80;43.24;99034.63;4477876;31;20108;-65
2023/07/10 08:42:53;;;;;;;11.82;5.22;;;;;;;31.01;43.20;99029.31;4474464;31;20174;-65
2023/07/10 08:45:40;;;;;;;6.55;5.15;;;;;;;31.02;44.10;99026.34;4478889;32;20152;-65
2023/07/10 08:48:31;;;;;;;9.70;5.40;;;;;;;31.11;41.85;99034.75;4476060;31;20791;-65
2023/07/10 08:51:03;;;;;;;8.20;5.10;;;;;;;31.15;42.97;99030.44;4477573;31;20132;-65
2023/07/10 08:53:32;;;;;;;11.40;5.43;;;;;;;31.45;44.65;99018.87;4473441;31;20506;-65
2023/07/10 08:56:34;;;;;;;11.52;5.30;;;;;;;31.52;42.92;99018.59;4472895;31;20156;-65
2023/07/10 08:59:47;;;;;;;9.00;5.12;;;;;;;31.98;44.09;99020.56;4430149;32;20131;-66
2023/07/10 09:02:22;;;;;;;10.85;5.20;;;;;;;32.46;42.93;99025.63;4430491;32;20560;-66
2023/07/10 09:04:51;;;;;;;9.25;5.03;;;;;;;32.53;42.19;99026.97;4416650;32;20531;-66
2023/07/10 09:07:19;;;;;;;6.95;5.25;;;;;;;32.24;42.11;99024.06;4421224;32;20113;-66
2023/07/10 09:10:00;;;;;;;12.52;6.12;;;;;;;32.26;41.83;99030.00;4420146;32;20113;-66
2023/07/10 09:12:41;;;;;;;7.35;5.28;;;;;;;32.25;41.43;99020.28;4429137;32;20171;-66
2023/07/10 09:15:14;;;;;;;7.95;4.85;;;;;;;32.37;40.90;99020.78;4420349;32;20113;-66
2023/07/10 09:18:02;;;;;;;9.43;4.87;;;;;;;32.41;38.31;99017.53;4430136;32;20105;-66
2023/07/10 09:20:29;;;;;;;5.18;4.68;;;;;;;32.23;38.69;99024.34;4415811;32;20160;-66
2023/07/10 09:22:59;;;;;;;8.40;4.70;;;;;;;32.56;38.34;99014.75;4431305;32;20547;-66
2023/07/10 09:25:27;;;;;;;11.43;4.78;;;;;;;32.88;39.36;99019.00;4419704;32;20483;-66
2023/07/10 09:27:56;;;;;;;7.10;4.93;;;;;;;32.42;37.72;99019.16;4433244;32;20101;-66
2023/07/10 09:30:27;;;;;;;8.82;4.90;;;;;;;32.03;40.76;99007.78;4432771;32;20160;-66
2023/07/10 09:33:03;;;;;;;13.25;4.75;;;;;;;32.16;38.55;99011.88;4417459;32;20624;-66
2023/07/10 09:35:30;;;;;;;10.07;5.32;;;;;;;31.94;40.04;98998.59;4459952;31;20107;-66
2023/07/10 09:37:57;;;;;;;6.82;4.97;;;;;;;32.11;40.57;99008.38;4485359;31;20557;-65
2023/07/10 09:40:40;;;;;;;7.65;5.57;;;;;;;32.12;41.59;98997.25;4496266;31;20092;-66
2023/07/10 09:43:20;;;;;;;8.57;5.50;;;;;;;32.52;42.82;98992.00;4487394;31;20622;-66
2023/07/10 09:45:50;;;;;;;10.75;5.65;;;;;;;32.79;42.12;98996.25;4474953;31;20121;-65
2023/07/10 09:48:26;;;;;;;8.68;4.90;;;;;;;32.79;42.08;98997.06;4492813;31;20084;-64
2023/07/10 09:50:54;;;;;;;9.85;5.50;;;;;;;32.76;37.73;98994.91;4492070;31;20128;-66
2023/07/10 09:53:26;;;;;;;7.95;4.50;;;;;;;32.86;38.99;98991.34;4486720;31;20112;-66
2023/07/10 09:55:54;;;;;;;6.18;4.15;;;;;;;32.94;37.18;98985.31;4479200;31;20115;-66
2023/07/10 09:58:22;;;;;;;5.10;4.40;;;;;;;32.83;35.38;98997.34;4492123;31;20457;-66
2023/07/10 10:00:49;;;;;;;10.32;4.45;;;;;;;33.10;35.84;98990.66;4481417;31;20100;-66
2023/07/10 10:03:27;;;;;;;4.70;4.20;;;;;;;33.04;35.46;98982.56;4483075;31;20420;-66
2023/07/10 10:05:58;;;;;;;5.93;4.00;;;;;;;32.90;35.36;98976.12;4477686;31;20111;-66
2023/07/10 10:08:28;;;;;;;6.07;4.65;;;;;;;32.81;34.96;98989.47;4485250;31;20087;-66
2023/07/10 10:11:05;;;;;;;5.95;4.65;;;;;;;32.54;34.67;98973.56;4478695;31;20463;-66
2023/07/10 10:13:37;;;;;;;6.07;4.20;;;;;;;32.96;34.99;98976.91;4488581;31;20104;-66
2023/07/10 10:16:13;;;;;;;5.22;4.00;;;;;;;32.91;34.98;98972.31;4477651;31;20185;-66
2023/07/10 10:18:44;;;;;;;6.60;4.60;;;;;;;33.25;35.15;98964.28;4478718;31;20103;-67
2023/07/10 10:21:15;;;;;;;9.30;4.37;;;;;;;32.98;33.56;98970.13;4478063;31;20649;-67
2023/07/10 10:23:47;;;;;;;9.68;4.70;;;;;;;33.11;34.15;98965.16;4485789;31;20152;-66
2023/07/10 10:26:27;;;;;;;6.60;4.22;;;;;;;32.98;34.68;98961.97;4482596;31;20092;-66
2023/07/10 10:28:58;;;;;;;5.00;4.32;;;;;;;33.14;35.38;98949.09;4482651;31;20542;-67
2023/07/10 10:31:31;;;;;;;6.22;4.93;;;;;;;33.10;34.62;98945.34;4483930;31;20153;-66
2023/07/10 10:34:46;;;;;;;5.20;4.28;;;;;;;33.00;36.30;98954.34;4483788;31;20160;-66
2023/07/10 10:37:23;;;;;;;7.00;4.75;;;;;;;33.25;35.28;98944.47;4413153;32;20155;-67
2023/07/10 10:39:58;;;;;;;6.47;4.78;;;;;;;33.45;34.62;98948.94;4427148;32;20110;-67
2023/07/10 10:42:43;;;;;;;7.47;4.60;;;;;;;33.36;35.05;98946.00;4415113;32;20214;-67
2023/07/10 10:45:16;;;;;;;5.78;4.57;;;;;;;33.79;35.07;98945.38;4415935;32;20101;-67
2023/07/10 10:48:15;;;;;;;6.03;5.00;;;;;;;33.87;34.98;98943.94;4414614;32;20490;-67
2023/07/10 10:51:02;;;;;;;7.80;4.65;;;;;;;33.91;34.42;98947.72;4426925;32;20121;-67
2023/07/10 10:53:49;;;;;;;6.37;4.47;;;;;;;34.08;34.50;98942.66;4421004;32;20139;-65
2023/07/10 10:56:17;;;;;;;6.70;5.15;;;;;;;34.20;33.97;98944.16;4418819;32;20131;-65
2023/07/10 10:59:09;;;;;;;6.35;4.32;;;;;;;34.29;33.72;98945.16;4424934;32;20208;-63
2023/07/10 11:01:44;;;;;;;5.35;4.80;;;;;;;34.38;33.42;98948.06;4405199;32;20096;-66
2023/07/10 11:04:21;;;;;;;5.28;4.62;;;;;;;33.92;34.47;98946.63;4404723;32;20109;-65
2023/07/10 11:06:59;;;;;;;6.03;4.62;;;;;;;33.95;35.04;98943.34;4416907;32;20932;-66
2023/07/10 11:09:30;;;;;;;5.95;4.60;;;;;;;33.76;34.18;98935.09;4410441;32;20105;-67
2023/07/10 11:11:59;;;;;;;5.72;4.97;;;;;;;33.63;35.19;98935.72;4446778;31;20143;-66
2023/07/10 11:14:27;;;;;;;7.72;4.68;;;;;;;33.31;35.19;98934.34;4488428;31;20113;-66
2023/07/10 11:16:55;;;;;;;6.70;4.57;;;;;;;33.22;34.69;98934.16;4485186;32;20537;-65
2023/07/10 11:19:27;;;;;;;5.40;4.43;;;;;;;33.55;34.06;98934.44;4488259;31;20477;-66
2023/07/10 11:22:17;;;;;;;5.45;4.50;;;;;;;33.64;33.28;98935.44;4484006;32;20148;-66
2023/07/10 11:24:48;;;;;;;4.80;4.18;;;;;;;33.53;31.99;98925.75;4472868;32;20474;-66
2023/07/10 11:27:27;;;;;;;6.25;4.70;;;;;;;33.37;33.84;98934.03;4469937;32;20451;-67
2023/07/10 11:30:06;;;;;;;15.00;4.32;;;;;;;33.89;32.31;98934.41;4476556;32;20151;-67
2023/07/10 11:33:04;;;;;;;7.70;4.53;;;;;;;34.10;32.11;98920.63;4484811;31;20084;-67
2023/07/10 11:35:32;;;;;;;7.57;4.57;;;;;;;34.03;32.42;98912.78;4485633;31;20522;-67
2023/07/10 11:37:59;;;;;;;7.35;4.35;;;;;;;33.94;31.98;98922.69;4484297;32;20096;-66
2023/07/10 11:40:26;;;;;;;9.88;4.22;;;;;;;34.16;30.89;98918.63;4495196;31;20092;-66
2023/07/10 11:43:00;;;;;;;5.95;4.60;;;;;;;34.20;30.12;98925.13;4500878;31;20091;-67
2023/07/10 11:45:43;;;;;;;7.90;4.72;;;;;;;34.54;29.77;98924.22;4488751;31;20132;-67
2023/07/10 11:48:54;;;;;;;6.10;4.45;;;;;;;34.54;29.99;98926.94;4485468;31;20549;-68
2023/07/10 11:51:27;;;;;;;8.30;4.65;;;;;;;34.69;31.07;98917.72;4468062;32;20168;-66
2023/07/10 11:54:05;;;;;;;5.47;4.37;;;;;;;34.70;30.58;98903.03;4486158;31;20095;-67